Time;durP1;ratioP1;P1;durP2;ratioP2;P2;SDS_P1;SDS_P2;PMS_P1;PMS_P2;Temp;Humidity;BMP_temperature;BMP_pressure;BME280_temperature;BME280_humidity;BME280_pressure;Samples;Min_cycle;Max_cycle;Signal;HPM_P1;HPM_P2
2022/04/20 00:01:13;;;;;;;3.10;2.80;;;;;;;;;;5034590;28;20174;-65
2022/04/20 00:03:40;;;;;;;4.13;2.90;;;;;;;;;;5032578;28;20663;-65
2022/04/20 00:06:06;;;;;;;10.30;2.97;;;;;;;;;;5033962;28;20190;-65
2022/04/20 00:08:32;;;;;;;4.80;2.93;;;;;;;;;;5033928;28;20555;-65
2022/04/20 00:10:59;;;;;;;7.20;3.03;;;;;;;;;;5034359;28;20651;-65
2022/04/20 00:13:25;;;;;;;6.97;2.90;;;;;;;;;;5033709;28;20198;-65
2022/04/20 00:15:51;;;;;;;3.57;3.00;;;;;;;;;;5033963;28;20221;-66
2022/04/20 00:18:17;;;;;;;6.70;2.97;;;;;;;;;;5032406;28;20246;-65
2022/04/20 00:20:43;;;;;;;5.30;3.10;;;;;;;;;;5033729;28;20171;-65
2022/04/20 00:23:09;;;;;;;4.13;3.07;;;;;;;;;;5033810;28;20199;-65
2022/04/20 00:25:35;;;;;;;4.93;3.10;;;;;;;;;;5033644;28;20181;-65
2022/04/20 00:28:01;;;;;;;4.30;3.73;;;;;;;;;;5033895;28;20176;-65
2022/04/20 00:30:27;;;;;;;5.67;3.27;;;;;;;;;;5033604;28;20191;-65
2022/04/20 00:32:53;;;;;;;5.47;2.80;;;;;;;;;;5031901;28;20257;-65
2022/04/20 00:35:19;;;;;;;5.43;2.97;;;;;;;;;;5032077;28;20658;-65
2022/04/20 00:37:45;;;;;;;4.00;3.20;;;;;;;;;;5033611;28;20198;-65
2022/04/20 00:40:12;;;;;;;4.40;3.00;;;;;;;;;;5033714;28;20175;-65
2022/04/20 00:42:40;;;;;;;4.53;3.00;;;;;;;;;;5033362;28;20191;-65
2022/04/20 00:45:07;;;;;;;4.70;3.33;;;;;;;;;;5032163;28;20179;-65
2022/04/20 00:47:36;;;;;;;172.87;12.40;;;;;;;;;;5033216;28;20271;-65
2022/04/20 00:50:02;;;;;;;5.33;3.20;;;;;;;;;;5032013;28;20706;-65
2022/04/20 00:52:28;;;;;;;130.23;10.97;;;;;;;;;;5033213;28;20309;-65
2022/04/20 00:54:54;;;;;;;55.60;8.90;;;;;;;;;;5031941;28;20274;-65
2022/04/20 00:57:20;;;;;;;75.03;7.07;;;;;;;;;;5031854;28;20238;-65
2022/04/20 00:59:46;;;;;;;37.87;5.27;;;;;;;;;;5033445;28;20241;-65
2022/04/20 01:02:12;;;;;;;21.73;4.60;;;;;;;;;;5033098;28;20206;-67
2022/04/20 01:04:38;;;;;;;7.20;3.33;;;;;;;;;;5033054;28;20183;-65
2022/04/20 01:07:14;;;;;;;22.00;3.90;;;;;;;;;;5033106;28;20179;-65
2022/04/20 01:09:40;;;;;;;17.67;3.90;;;;;;;;;;5033573;28;20252;-65
2022/04/20 01:12:07;;;;;;;23.07;4.90;;;;;;;;;;5031699;28;20566;-65
2022/04/20 01:14:33;;;;;;;27.33;5.57;;;;;;;;;;5031776;28;20190;-65
2022/04/20 01:16:59;;;;;;;33.67;4.77;;;;;;;;;;5033243;28;20290;-65
2022/04/20 01:19:41;;;;;;;35.27;4.27;;;;;;;;;;5032953;28;20179;-65
2022/04/20 01:22:07;;;;;;;19.43;4.73;;;;;;;;;;5033379;28;20248;-65
2022/04/20 01:24:33;;;;;;;9.03;3.63;;;;;;;;;;5034098;28;20579;-65
2022/04/20 01:26:59;;;;;;;11.53;3.63;;;;;;;;;;5033843;28;20666;-65
2022/04/20 01:29:26;;;;;;;10.07;3.97;;;;;;;;;;5033750;28;20179;-65
2022/04/20 01:31:52;;;;;;;8.27;3.80;;;;;;;;;;5033734;28;20656;-65
2022/04/20 01:34:18;;;;;;;10.23;4.33;;;;;;;;;;5036472;28;20190;-65
2022/04/20 01:36:44;;;;;;;8.43;3.70;;;;;;;;;;5036663;28;20207;-65
2022/04/20 01:39:11;;;;;;;5.67;4.13;;;;;;;;;;5031744;28;20211;-65
2022/04/20 01:41:37;;;;;;;5.03;3.97;;;;;;;;;;5033036;28;20180;-65
2022/04/20 01:44:03;;;;;;;6.50;3.67;;;;;;;;;;5032803;28;20659;-65
2022/04/20 01:46:29;;;;;;;9.57;4.13;;;;;;;;;;5033716;28;20184;-65
2022/04/20 01:48:55;;;;;;;12.97;4.57;;;;;;;;;;5036626;28;20181;-65
2022/04/20 01:54:07;;;;;;;10.97;4.60;;;;;;;;;;5036593;28;20601;-65
2022/04/20 01:56:33;;;;;;;11.33;3.90;;;;;;;;;;5034962;28;20199;-65
2022/04/20 01:58:59;;;;;;;6.67;3.93;;;;;;;;;;5035111;28;20186;-65
2022/04/20 02:04:10;;;;;;;5.87;4.13;;;;;;;;;;5036377;28;20748;-65
2022/04/20 02:06:36;;;;;;;10.77;4.77;;;;;;;;;;5036499;28;20175;-65
2022/04/20 02:09:02;;;;;;;5.00;4.00;;;;;;;;;;5036680;28;20254;-64
2022/04/20 02:11:28;;;;;;;10.20;4.83;;;;;;;;;;5034783;28;20286;-65
2022/04/20 02:13:54;;;;;;;12.27;4.10;;;;;;;;;;5034837;28;20234;-65
2022/04/20 02:16:19;;;;;;;11.33;4.53;;;;;;;;;;5035999;28;20206;-65
2022/04/20 02:18:45;;;;;;;11.50;4.63;;;;;;;;;;5034776;28;20198;-64
2022/04/20 02:21:11;;;;;;;14.70;4.30;;;;;;;;;;5035996;28;20531;-65
2022/04/20 02:23:37;;;;;;;27.73;4.70;;;;;;;;;;5036143;28;20206;-65
2022/04/20 02:26:03;;;;;;;26.80;5.23;;;;;;;;;;5035861;28;20167;-65
2022/04/20 02:28:29;;;;;;;20.20;4.13;;;;;;;;;;5035794;28;20642;-65
2022/04/20 02:30:55;;;;;;;13.93;4.17;;;;;;;;;;5036339;28;20547;-65
2022/04/20 02:33:21;;;;;;;7.90;3.47;;;;;;;;;;5035632;28;20206;-65
2022/04/20 02:35:47;;;;;;;12.80;3.77;;;;;;;;;;5034385;28;20183;-65
2022/04/20 02:38:15;;;;;;;7.67;3.30;;;;;;;;;;5035833;28;20203;-65
2022/04/20 02:40:41;;;;;;;7.97;3.20;;;;;;;;;;5035623;28;20175;-65
2022/04/20 02:43:08;;;;;;;10.23;3.50;;;;;;;;;;5035808;28;20265;-65
2022/04/20 02:45:34;;;;;;;6.73;3.40;;;;;;;;;;5035823;28;20217;-65
2022/04/20 02:48:00;;;;;;;7.93;2.73;;;;;;;;;;5035499;28;20643;-65
2022/04/20 02:50:27;;;;;;;2.63;2.43;;;;;;;;;;5036174;28;20222;-65
2022/04/20 02:52:53;;;;;;;3.23;2.43;;;;;;;;;;5034229;28;20280;-65
2022/04/20 02:55:19;;;;;;;7.33;2.60;;;;;;;;;;5034036;28;20183;-65
2022/04/20 02:57:45;;;;;;;4.17;2.40;;;;;;;;;;5035027;28;20253;-65
2022/04/20 03:00:12;;;;;;;2.13;1.90;;;;;;;;;;5035187;28;20179;-64
2022/04/20 03:02:38;;;;;;;4.70;2.37;;;;;;;;;;5061060;22;20198;-65
2022/04/20 03:05:04;;;;;;;4.83;2.03;;;;;;;;;;5034396;28;20590;-66
2022/04/20 03:07:30;;;;;;;11.90;2.57;;;;;;;;;;5033754;28;20190;-67
2022/04/20 03:09:56;;;;;;;2.97;2.10;;;;;;;;;;5034935;28;20180;-66
2022/04/20 03:12:22;;;;;;;3.23;1.77;;;;;;;;;;5034845;28;20183;-68
2022/04/20 03:14:48;;;;;;;2.27;1.90;;;;;;;;;;5034954;28;20255;-66
2022/04/20 03:17:14;;;;;;;3.83;1.80;;;;;;;;;;5033404;28;20222;-67
2022/04/20 03:19:40;;;;;;;7.53;1.73;;;;;;;;;;5033449;28;20183;-67
2022/04/20 03:22:06;;;;;;;1.80;1.37;;;;;;;;;;5034687;28;20182;-67
2022/04/20 03:24:32;;;;;;;1.50;1.40;;;;;;;;;;5034589;28;20206;-65
2022/04/20 03:26:58;;;;;;;1.83;1.73;;;;;;;;;;5033360;28;20187;-66
2022/04/20 03:29:24;;;;;;;2.10;1.90;;;;;;;;;;5034786;28;20187;-67
2022/04/20 03:31:50;;;;;;;5.13;1.80;;;;;;;;;;5035033;28;20175;-67
2022/04/20 03:34:16;;;;;;;12.40;1.90;;;;;;;;;;5033116;28;20214;-66
2022/04/20 03:36:42;;;;;;;14.77;2.13;;;;;;;;;;5034841;28;20207;-68
2022/04/20 03:39:08;;;;;;;4.27;1.77;;;;;;;;;;5033159;28;20179;-67
2022/04/20 03:41:34;;;;;;;7.70;1.87;;;;;;;;;;5034352;28;20554;-67
2022/04/20 03:44:00;;;;;;;1.60;1.50;;;;;;;;;;5034862;28;20762;-67
2022/04/20 03:46:26;;;;;;;3.93;1.50;;;;;;;;;;5034210;28;20199;-66
2022/04/20 03:48:52;;;;;;;7.33;1.83;;;;;;;;;;5034172;28;20206;-66
2022/04/20 03:51:18;;;;;;;3.77;2.37;;;;;;;;;;5034245;28;20179;-67
2022/04/20 03:53:45;;;;;;;1.40;1.30;;;;;;;;;;5033941;28;20203;-67
2022/04/20 03:56:11;;;;;;;2.37;1.77;;;;;;;;;;5034417;28;20210;-68
2022/04/20 03:58:37;;;;;;;1.77;1.50;;;;;;;;;;5034044;28;20176;-67
2022/04/20 04:01:03;;;;;;;3.13;2.10;;;;;;;;;;5032705;28;20202;-66
2022/04/20 04:03:29;;;;;;;3.47;2.07;;;;;;;;;;5033534;28;20211;-67
2022/04/20 04:05:56;;;;;;;4.10;1.87;;;;;;;;;;5032471;28;20584;-67
2022/04/20 04:08:22;;;;;;;1.90;1.60;;;;;;;;;;5033557;28;20179;-66
2022/04/20 04:10:49;;;;;;;2.20;1.60;;;;;;;;;;5032447;28;20183;-67
2022/04/20 04:13:16;;;;;;;3.00;2.03;;;;;;;;;;5032362;28;20721;-67
2022/04/20 04:15:43;;;;;;;1.73;1.63;;;;;;;;;;5033921;28;20178;-67
2022/04/20 04:18:09;;;;;;;7.47;1.90;;;;;;;;;;5032284;28;20233;-66
2022/04/20 04:20:35;;;;;;;5.93;2.27;;;;;;;;;;5033659;28;20175;-66
2022/04/20 04:23:02;;;;;;;5.33;1.37;;;;;;;;;;5033525;28;20202;-67
2022/04/20 04:25:28;;;;;;;3.57;2.20;;;;;;;;;;5033771;28;20179;-68
2022/04/20 04:27:54;;;;;;;18.80;1.83;;;;;;;;;;5032465;28;20282;-67
2022/04/20 04:30:20;;;;;;;1.50;1.40;;;;;;;;;;5032958;28;20190;-69
2022/04/20 04:32:47;;;;;;;9.50;1.80;;;;;;;;;;5033294;28;20207;-67
2022/04/20 04:35:13;;;;;;;2.43;2.13;;;;;;;;;;5033929;28;20175;-65
2022/04/20 04:37:40;;;;;;;1.77;1.67;;;;;;;;;;5031971;28;20297;-67
2022/04/20 04:40:06;;;;;;;2.20;1.60;;;;;;;;;;5033267;28;20659;-66
2022/04/20 04:42:32;;;;;;;3.23;2.23;;;;;;;;;;5033175;28;20175;-65
2022/04/20 04:48:36;;;;;;;1.40;1.30;;;;;;;;;;5033562;28;20647;-67
2022/04/20 04:50:28;;;;;;;3.80;1.90;;;;;;;;;;5033195;28;20193;-66
2022/04/20 04:52:54;;;;;;;1.47;1.30;;;;;;;;;;5031863;28;20294;-66
2022/04/20 04:55:20;;;;;;;2.83;2.00;;;;;;;;;;5031884;28;20186;-66
2022/04/20 04:57:46;;;;;;;3.03;1.70;;;;;;;;;;5031751;28;20207;-66
2022/04/20 05:00:13;;;;;;;3.10;1.70;;;;;;;;;;5031854;28;20183;-66
2022/04/20 05:02:40;;;;;;;3.27;1.63;;;;;;;;;;5033349;28;20179;-68
2022/04/20 05:05:06;;;;;;;2.67;1.80;;;;;;;;;;5033105;28;20163;-69
2022/04/20 05:07:32;;;;;;;2.13;1.83;;;;;;;;;;5033596;28;20179;-68
2022/04/20 05:09:57;;;;;;;2.30;1.77;;;;;;;;;;5033298;28;20627;-67
2022/04/20 05:12:23;;;;;;;1.90;1.50;;;;;;;;;;5033129;28;20723;-67
2022/04/20 05:14:49;;;;;;;1.30;1.20;;;;;;;;;;5033053;28;20229;-68
2022/04/20 05:17:15;;;;;;;5.00;2.10;;;;;;;;;;5031645;28;20330;-69
2022/04/20 05:19:41;;;;;;;3.63;1.73;;;;;;;;;;5032823;28;20537;-66
2022/04/20 05:22:07;;;;;;;1.23;1.13;;;;;;;;;;5036929;28;20176;-67
2022/04/20 05:24:35;;;;;;;1.60;1.50;;;;;;;;;;5035610;28;20198;-67
2022/04/20 05:27:01;;;;;;;1.60;1.50;;;;;;;;;;5035792;28;20175;-65
2022/04/20 05:29:27;;;;;;;4.63;1.20;;;;;;;;;;5037124;28;20614;-67
2022/04/20 05:31:55;;;;;;;1.37;1.27;;;;;;;;;;5035642;28;20218;-67
2022/04/20 05:34:23;;;;;;;1.83;1.73;;;;;;;;;;5035469;28;20206;-66
2022/04/20 05:42:18;;;;;;;1.77;1.67;;;;;;;;;;5037080;28;20195;-67
2022/04/20 05:44:47;;;;;;;1.33;1.27;;;;;;;;;;5036911;28;20579;-67
2022/04/20 05:47:13;;;;;;;1.17;1.10;;;;;;;;;;5035257;28;20189;-66
2022/04/20 05:49:39;;;;;;;3.60;1.87;;;;;;;;;;5036430;28;20183;-66
2022/04/20 05:52:06;;;;;;;1.60;1.27;;;;;;;;;;5035166;28;20194;-65
2022/04/20 05:54:32;;;;;;;3.17;1.10;;;;;;;;;;5037099;28;20230;-66
2022/04/20 05:56:58;;;;;;;0.90;0.90;;;;;;;;;;5034923;28;20211;-66
2022/04/20 05:59:24;;;;;;;0.83;0.83;;;;;;;;;;5036322;28;20546;-66
2022/04/20 06:01:50;;;;;;;1.00;0.90;;;;;;;;;;5035045;28;20186;-66
2022/04/20 06:04:16;;;;;;;0.90;0.80;;;;;;;;;;5034686;28;20219;-66
2022/04/20 06:06:42;;;;;;;1.40;1.30;;;;;;;;;;5034885;28;20209;-67
2022/04/20 06:09:09;;;;;;;1.00;1.00;;;;;;;;;;5036208;28;20290;-66
2022/04/20 06:11:35;;;;;;;1.13;1.10;;;;;;;;;;5034858;28;20191;-66
2022/04/20 06:14:01;;;;;;;1.23;1.00;;;;;;;;;;5035962;28;20287;-66
2022/04/20 06:16:27;;;;;;;1.20;1.20;;;;;;;;;;5036265;28;20266;-65
2022/04/20 06:18:53;;;;;;;1.13;1.13;;;;;;;;;;5036060;28;20225;-66
2022/04/20 06:21:19;;;;;;;1.00;1.00;;;;;;;;;;5036050;28;20708;-66
2022/04/20 06:23:45;;;;;;;1.80;0.97;;;;;;;;;;5036264;28;20274;-65
2022/04/20 06:26:11;;;;;;;0.90;0.90;;;;;;;;;;5036060;28;20639;-64
2022/04/20 06:28:37;;;;;;;0.73;0.73;;;;;;;;;;5035230;28;20184;-64
2022/04/20 06:31:05;;;;;;;2.77;1.60;;;;;;;;;;5035195;28;20596;-65
2022/04/20 06:33:31;;;;;;;1.00;1.00;;;;;;;;;;5035285;28;20209;-66
2022/04/20 06:35:58;;;;;;;0.80;0.80;;;;;;;;;;5034858;28;20572;-65
2022/04/20 06:38:24;;;;;;;0.93;0.93;;;;;;;;;;5034524;28;20207;-66
2022/04/20 06:40:50;;;;;;;1.03;1.00;;;;;;;;;;5036022;28;20182;-67
2022/04/20 06:43:16;;;;;;;1.53;1.00;;;;;;;;;;5034612;28;20199;-66
2022/04/20 06:45:44;;;;;;;1.37;1.27;;;;;;;;;;5034553;28;20175;-65
2022/04/20 06:48:10;;;;;;;0.80;0.80;;;;;;;;;;5034550;28;20639;-65
2022/04/20 06:50:36;;;;;;;1.03;1.00;;;;;;;;;;5035488;28;20175;-67
2022/04/20 06:58:32;;;;;;;1.00;1.00;;;;;;;;;;5035988;28;20424;-64
2022/04/20 07:00:59;;;;;;;1.13;1.03;;;;;;;;;;5034519;28;20640;-65
2022/04/20 07:03:25;;;;;;;1.03;1.03;;;;;;;;;;5033941;28;20226;-65
2022/04/20 07:05:51;;;;;;;1.70;1.47;;;;;;;;;;5035921;28;20182;-64
2022/04/20 07:08:18;;;;;;;0.97;0.97;;;;;;;;;;5035483;28;20179;-66
2022/04/20 07:10:44;;;;;;;1.00;1.00;;;;;;;;;;5033908;28;20635;-63
2022/04/20 07:13:12;;;;;;;1.60;1.33;;;;;;;;;;5033940;28;20241;-65
2022/04/20 07:15:38;;;;;;;1.10;1.00;;;;;;;;;;5035190;28;20172;-65
2022/04/20 07:18:05;;;;;;;1.90;1.37;;;;;;;;;;5035000;28;20293;-65
2022/04/20 07:20:31;;;;;;;1.40;1.30;;;;;;;;;;5034872;28;20202;-64
2022/04/20 07:22:57;;;;;;;1.30;1.20;;;;;;;;;;5033737;28;20595;-65
2022/04/20 07:25:25;;;;;;;1.17;1.07;;;;;;;;;;5035183;28;20241;-65
2022/04/20 07:27:51;;;;;;;1.30;1.20;;;;;;;;;;5035147;28;20179;-65
2022/04/20 07:30:17;;;;;;;1.53;1.20;;;;;;;;;;5033532;28;20275;-65
2022/04/20 07:32:44;;;;;;;1.40;1.30;;;;;;;;;;5034732;28;20623;-65
2022/04/20 07:35:10;;;;;;;1.40;1.07;;;;;;;;;;5035063;28;20187;-65
2022/04/20 07:37:36;;;;;;;1.83;1.73;;;;;;;;;;5033435;28;20203;-65
2022/04/20 07:40:02;;;;;;;3.20;1.80;;;;;;;;;;5033659;28;20186;-65
2022/04/20 07:42:28;;;;;;;1.00;1.00;;;;;;;;;;5034873;28;20254;-64
2022/04/20 07:44:56;;;;;;;1.37;1.07;;;;;;;;;;5032559;28;20213;-65
2022/04/20 07:47:24;;;;;;;1.20;1.10;;;;;;;;;;5034575;28;20225;-66
2022/04/20 07:52:39;;;;;;;0.73;0.73;;;;;;;;;;5034629;28;20179;-65
2022/04/20 07:55:09;;;;;;;0.90;0.90;;;;;;;;;;5034838;28;20266;-66
2022/04/20 07:57:35;;;;;;;0.90;0.90;;;;;;;;;;5034372;28;20206;-65
2022/04/20 08:00:02;;;;;;;1.07;1.07;;;;;;;;;;5032937;28;20179;-66
2022/04/20 08:02:28;;;;;;;2.50;1.27;;;;;;;;;;5032883;28;20214;-65
2022/04/20 08:04:53;;;;;;;1.57;0.90;;;;;;;;;;5034125;28;20242;-66
2022/04/20 08:07:20;;;;;;;0.70;0.70;;;;;;;;;;5034491;28;20207;-65
2022/04/20 08:09:46;;;;;;;1.33;1.23;;;;;;;;;;5034215;28;20171;-65
2022/04/20 08:12:12;;;;;;;1.10;1.00;;;;;;;;;;5033011;28;20183;-65
2022/04/20 08:14:37;;;;;;;1.07;1.07;;;;;;;;;;5034494;28;20544;-66
2022/04/20 08:17:03;;;;;;;1.10;1.10;;;;;;;;;;5033860;28;20766;-65
2022/04/20 08:19:30;;;;;;;0.90;0.90;;;;;;;;;;5034098;28;20217;-66
2022/04/20 08:21:56;;;;;;;0.70;0.70;;;;;;;;;;5034465;28;20175;-64
2022/04/20 08:24:22;;;;;;;1.03;1.03;;;;;;;;;;5032585;28;20210;-64
2022/04/20 08:26:48;;;;;;;1.27;1.10;;;;;;;;;;5033846;28;20221;-64
2022/04/20 08:29:15;;;;;;;1.20;1.10;;;;;;;;;;5032665;28;20190;-65
2022/04/20 08:31:41;;;;;;;1.20;1.10;;;;;;;;;;5034392;28;20183;-65
2022/04/20 08:34:07;;;;;;;1.20;1.10;;;;;;;;;;5033770;28;20770;-65
2022/04/20 08:36:33;;;;;;;1.10;1.10;;;;;;;;;;5032396;28;20278;-65
2022/04/20 08:38:59;;;;;;;0.90;0.90;;;;;;;;;;5032348;28;20200;-65
2022/04/20 08:41:26;;;;;;;1.07;1.00;;;;;;;;;;5033852;28;20261;-65
2022/04/20 08:43:52;;;;;;;1.47;1.37;;;;;;;;;;5032289;28;20285;-64
2022/04/20 08:46:19;;;;;;;0.90;0.90;;;;;;;;;;5033536;28;20237;-65
2022/04/20 08:48:45;;;;;;;1.03;1.03;;;;;;;;;;5033645;28;20214;-64
2022/04/20 08:51:12;;;;;;;1.07;1.07;;;;;;;;;;5033276;28;20175;-65
2022/04/20 08:53:38;;;;;;;1.40;1.30;;;;;;;;;;5033706;28;20662;-65
2022/04/20 08:58:50;;;;;;;1.00;0.97;;;;;;;;;;5033637;28;20217;-65
2022/04/20 09:01:16;;;;;;;1.23;1.20;;;;;;;;;;5033146;28;20175;-64
2022/04/20 09:03:46;;;;;;;0.87;0.87;;;;;;;;;;5033076;28;20215;-65
2022/04/20 09:06:15;;;;;;;0.70;0.70;;;;;;;;;;5033180;28;20185;-65
2022/04/20 09:08:43;;;;;;;0.80;0.80;;;;;;;;;;5033369;28;20190;-65
2022/04/20 09:11:09;;;;;;;0.80;0.80;;;;;;;;;;5033261;28;20232;-65
2022/04/20 09:13:38;;;;;;;1.00;1.00;;;;;;;;;;5031745;28;20729;-65
2022/04/20 09:16:07;;;;;;;0.80;0.80;;;;;;;;;;5033222;28;20175;-65
2022/04/20 09:18:34;;;;;;;1.13;1.03;;;;;;;;;;5033278;28;20207;-65
2022/04/20 09:21:07;;;;;;;1.13;1.10;;;;;;;;;;5033138;28;20175;-65
2022/04/20 09:23:34;;;;;;;0.87;0.87;;;;;;;;;;5033424;28;20195;-65
2022/04/20 09:26:07;;;;;;;0.90;0.90;;;;;;;;;;5031858;28;20298;-65
2022/04/20 09:28:33;;;;;;;0.70;0.70;;;;;;;;;;5033576;28;20221;-65
2022/04/20 09:30:59;;;;;;;0.73;0.73;;;;;;;;;;5033447;28;20602;-65
2022/04/20 09:33:42;;;;;;;0.80;0.80;;;;;;;;;;5032940;28;20203;-65
2022/04/20 09:36:08;;;;;;;0.70;0.70;;;;;;;;;;5033120;28;20666;-63
2022/04/20 09:38:37;;;;;;;0.80;0.80;;;;;;;;;;5032946;28;20199;-64
2022/04/20 09:41:09;;;;;;;1.00;1.00;;;;;;;;;;5031522;28;20290;-65
2022/04/20 09:43:36;;;;;;;1.40;1.30;;;;;;;;;;5031531;28;20238;-64
2022/04/20 09:49:08;;;;;;;0.90;0.90;;;;;;;;;;5048359;22;20604;-63
2022/04/20 09:51:38;;;;;;;1.20;1.00;;;;;;;;;;5034901;28;20171;-63
2022/04/20 09:54:04;;;;;;;1.00;1.00;;;;;;;;;;5033502;28;20180;-63
2022/04/20 09:56:31;;;;;;;0.70;0.70;;;;;;;;;;5034794;28;20171;-63
2022/04/20 09:58:59;;;;;;;0.83;0.83;;;;;;;;;;5034466;28;20203;-63
2022/04/20 10:01:27;;;;;;;0.80;0.80;;;;;;;;;;5034458;28;20171;-62
2022/04/20 10:03:54;;;;;;;1.20;1.20;;;;;;;;;;5034047;28;20171;-65
2022/04/20 10:06:20;;;;;;;0.97;0.97;;;;;;;;;;5034843;28;20182;-63
2022/04/20 10:08:45;;;;;;;0.90;0.90;;;;;;;;;;5036318;28;20199;-63
2022/04/20 10:11:13;;;;;;;1.80;1.20;;;;;;;;;;5038078;28;20186;-64
2022/04/20 10:13:39;;;;;;;1.27;1.10;;;;;;;;;;5037930;28;20179;-65
2022/04/20 10:16:09;;;;;;;1.73;0.97;;;;;;;;;;5037765;28;20176;-64
2022/04/20 10:18:37;;;;;;;1.00;1.00;;;;;;;;;;5036615;28;20225;-63
2022/04/20 10:21:03;;;;;;;1.10;1.00;;;;;;;;;;5038614;28;20179;-65
2022/04/20 10:23:29;;;;;;;1.00;1.00;;;;;;;;;;5038369;28;20599;-64
2022/04/20 10:25:56;;;;;;;0.97;0.97;;;;;;;;;;5037549;28;20179;-64
2022/04/20 10:28:36;;;;;;;0.90;0.90;;;;;;;;;;5037464;28;20671;-63
2022/04/20 10:31:02;;;;;;;1.43;1.30;;;;;;;;;;5038251;28;20168;-64
2022/04/20 10:33:31;;;;;;;1.07;0.80;;;;;;;;;;5037773;28;20187;-64
2022/04/20 10:35:58;;;;;;;0.90;0.90;;;;;;;;;;5037961;28;20659;-64
2022/04/20 10:38:24;;;;;;;2.07;1.30;;;;;;;;;;5037828;28;20237;-63
2022/04/20 10:41:02;;;;;;;2.30;1.20;;;;;;;;;;5037730;28;20171;-63
2022/04/20 10:43:28;;;;;;;1.20;1.17;;;;;;;;;;5037844;28;20264;-63
2022/04/20 10:46:03;;;;;;;0.70;0.70;;;;;;;;;;5037034;28;20172;-64
2022/04/20 10:48:49;;;;;;;0.90;0.90;;;;;;;;;;5035774;28;20596;-63
2022/04/20 10:51:16;;;;;;;0.90;0.90;;;;;;;;;;5037585;28;20186;-64
2022/04/20 10:53:43;;;;;;;0.90;0.90;;;;;;;;;;5037457;28;20183;-64
2022/04/20 10:56:09;;;;;;;0.80;0.80;;;;;;;;;;5036930;28;20655;-64
2022/04/20 10:58:35;;;;;;;0.87;0.87;;;;;;;;;;5037443;28;20233;-64
2022/04/20 11:01:07;;;;;;;1.20;1.10;;;;;;;;;;5037349;28;20543;-64
2022/04/20 11:03:53;;;;;;;0.83;0.83;;;;;;;;;;5036788;28;20651;-64
2022/04/20 11:06:19;;;;;;;1.00;1.00;;;;;;;;;;5035434;28;20206;-64
2022/04/20 11:08:44;;;;;;;0.90;0.90;;;;;;;;;;5037256;28;20235;-64
2022/04/20 11:19:54;;;;;;;0.90;0.90;;;;;;;;;;5037109;28;20210;-64
2022/04/20 11:22:23;;;;;;;0.80;0.80;;;;;;;;;;5036720;28;20183;-65
2022/04/20 11:25:02;;;;;;;0.83;0.83;;;;;;;;;;5037120;28;20540;-66
2022/04/20 11:27:35;;;;;;;0.80;0.80;;;;;;;;;;5038085;28;20166;-64
2022/04/20 11:30:03;;;;;;;0.80;0.80;;;;;;;;;;5036321;28;20253;-64
2022/04/20 11:32:29;;;;;;;1.10;1.00;;;;;;;;;;5036190;28;20628;-64
2022/04/20 11:35:07;;;;;;;1.00;1.00;;;;;;;;;;5036891;28;20176;-64
2022/04/20 11:37:33;;;;;;;0.83;0.83;;;;;;;;;;5036398;28;20195;-66
2022/04/20 11:40:00;;;;;;;1.00;1.00;;;;;;;;;;5035850;28;20235;-64
2022/04/20 11:42:26;;;;;;;1.10;1.00;;;;;;;;;;5036717;28;20167;-64
2022/04/20 11:44:52;;;;;;;1.00;1.00;;;;;;;;;;5036344;28;20178;-65
2022/04/20 11:47:18;;;;;;;1.80;1.30;;;;;;;;;;5036659;28;20539;-65
2022/04/20 11:49:46;;;;;;;1.77;1.40;;;;;;;;;;5036144;28;20682;-64
2022/04/20 11:52:14;;;;;;;1.23;1.13;;;;;;;;;;5034646;28;20206;-65
2022/04/20 11:54:41;;;;;;;0.90;0.90;;;;;;;;;;5035863;28;20182;-64
2022/04/20 11:57:08;;;;;;;0.90;0.90;;;;;;;;;;5035964;28;20203;-64
2022/04/20 11:59:35;;;;;;;0.90;0.90;;;;;;;;;;5035648;28;20757;-64
2022/04/20 12:02:01;;;;;;;1.20;1.10;;;;;;;;;;5036015;28;20207;-64
2022/04/20 12:04:27;;;;;;;0.93;0.93;;;;;;;;;;5035964;28;20172;-64
2022/04/20 12:06:55;;;;;;;1.27;1.20;;;;;;;;;;5034229;28;20191;-65
2022/04/20 12:09:22;;;;;;;1.47;0.83;;;;;;;;;;5035693;28;20262;-64
2022/04/20 12:11:51;;;;;;;0.93;0.93;;;;;;;;;;5036105;28;20189;-65
2022/04/20 12:14:17;;;;;;;0.90;0.90;;;;;;;;;;5035998;28;20210;-65
2022/04/20 12:16:43;;;;;;;1.30;1.20;;;;;;;;;;5035446;28;20238;-65
2022/04/20 12:19:10;;;;;;;1.40;1.30;;;;;;;;;;5035315;28;20206;-64
2022/04/20 12:21:37;;;;;;;1.20;1.10;;;;;;;;;;5035334;28;20175;-64
2022/04/20 12:24:03;;;;;;;1.00;1.00;;;;;;;;;;5035861;28;20198;-64
2022/04/20 12:26:30;;;;;;;0.80;0.80;;;;;;;;;;5035819;28;20526;-65
2022/04/20 12:29:00;;;;;;;1.27;1.17;;;;;;;;;;5034969;28;20194;-65
2022/04/20 12:31:26;;;;;;;0.90;0.90;;;;;;;;;;5035138;28;20182;-64
2022/04/20 12:34:01;;;;;;;1.03;1.03;;;;;;;;;;5035655;28;20218;-64
2022/04/20 12:36:29;;;;;;;1.00;1.00;;;;;;;;;;5035356;28;20170;-64
2022/04/20 12:38:55;;;;;;;1.10;1.10;;;;;;;;;;5034053;28;20663;-63
2022/04/20 12:41:54;;;;;;;1.20;1.10;;;;;;;;;;5034979;28;20229;-64
2022/04/20 12:44:35;;;;;;;1.57;1.47;;;;;;;;;;5002404;28;20241;-64
2022/04/20 12:47:07;;;;;;;1.20;1.10;;;;;;;;;;5034868;28;20652;-63
2022/04/20 12:49:33;;;;;;;1.13;1.07;;;;;;;;;;5036995;28;20223;-65
2022/04/20 12:52:09;;;;;;;0.90;0.90;;;;;;;;;;5044996;28;20182;-65
2022/04/20 12:54:35;;;;;;;1.23;1.10;;;;;;;;;;5047170;28;20182;-63
2022/04/20 13:02:32;;;;;;;1.27;1.27;;;;;;;;;;5043242;28;20257;-63
2022/04/20 13:04:58;;;;;;;0.90;0.90;;;;;;;;;;5035253;28;20662;-65
2022/04/20 13:07:24;;;;;;;1.50;1.40;;;;;;;;;;5034394;28;20179;-64
2022/04/20 13:09:50;;;;;;;0.97;0.97;;;;;;;;;;5035288;28;20240;-65
2022/04/20 13:12:16;;;;;;;1.00;1.00;;;;;;;;;;5034723;28;20535;-65
2022/04/20 13:14:42;;;;;;;1.00;1.00;;;;;;;;;;5034129;28;20639;-65
2022/04/20 13:17:09;;;;;;;0.80;0.80;;;;;;;;;;5034913;28;20244;-65
2022/04/20 13:19:38;;;;;;;1.40;1.30;;;;;;;;;;5034910;28;20316;-65
2022/04/20 13:22:04;;;;;;;1.07;1.07;;;;;;;;;;5035033;28;20182;-66
2022/04/20 13:30:00;;;;;;;1.03;1.03;;;;;;;;;;5034626;28;20245;-65
2022/04/20 13:32:26;;;;;;;0.97;0.97;;;;;;;;;;5033393;28;20187;-65
2022/04/20 13:34:52;;;;;;;1.17;1.17;;;;;;;;;;5033617;28;20251;-65
2022/04/20 13:37:18;;;;;;;1.20;1.10;;;;;;;;;;5035458;28;20206;-65
2022/04/20 13:39:44;;;;;;;0.90;0.90;;;;;;;;;;5034004;28;20199;-65
2022/04/20 13:42:10;;;;;;;1.03;1.03;;;;;;;;;;5035167;28;20187;-64
2022/04/20 13:44:37;;;;;;;0.80;0.80;;;;;;;;;;5038412;28;20179;-65
2022/04/20 13:47:03;;;;;;;1.60;1.10;;;;;;;;;;5037068;28;20205;-65
2022/04/20 13:49:29;;;;;;;0.90;0.90;;;;;;;;;;5038778;28;20219;-64
2022/04/20 13:51:55;;;;;;;1.00;1.00;;;;;;;;;;5038956;28;20190;-65
2022/04/20 13:54:21;;;;;;;0.97;0.97;;;;;;;;;;5037135;28;20633;-65
2022/04/20 13:56:50;;;;;;;1.03;1.03;;;;;;;;;;5038425;28;20552;-65
2022/04/20 13:59:16;;;;;;;1.30;1.20;;;;;;;;;;5042561;28;20721;-64
2022/04/20 14:01:42;;;;;;;1.10;1.10;;;;;;;;;;5046806;28;20297;-64
2022/04/20 14:04:08;;;;;;;1.23;1.13;;;;;;;;;;5044240;28;20183;-64
2022/04/20 14:06:34;;;;;;;1.00;1.00;;;;;;;;;;5043766;28;20214;-64
2022/04/20 14:09:00;;;;;;;0.87;0.87;;;;;;;;;;5040028;28;20249;-64
2022/04/20 14:11:26;;;;;;;1.53;1.30;;;;;;;;;;5040652;28;20175;-64
2022/04/20 14:13:52;;;;;;;1.63;1.20;;;;;;;;;;5040625;28;20207;-62
2022/04/20 14:16:18;;;;;;;1.10;1.10;;;;;;;;;;5039038;28;20663;-62
2022/04/20 14:18:45;;;;;;;1.00;1.00;;;;;;;;;;5040847;28;20221;-64
2022/04/20 14:21:13;;;;;;;1.20;1.20;;;;;;;;;;5043209;28;20214;-65
2022/04/20 14:23:39;;;;;;;1.00;1.00;;;;;;;;;;5042739;28;20187;-63
2022/04/20 14:34:20;;;;;;;1.30;1.20;;;;;;;;;;5042280;28;20224;-65
2022/04/20 14:36:46;;;;;;;1.00;1.00;;;;;;;;;;5043626;28;20171;-64
2022/04/20 14:39:12;;;;;;;1.43;1.33;;;;;;;;;;5044906;28;20270;-64
2022/04/20 14:41:38;;;;;;;1.13;1.10;;;;;;;;;;5046331;28;20181;-65
2022/04/20 14:44:05;;;;;;;1.40;1.30;;;;;;;;;;5045751;28;20179;-64
2022/04/20 14:46:31;;;;;;;1.90;1.80;;;;;;;;;;5045438;28;20270;-64
2022/04/20 14:48:57;;;;;;;1.57;1.30;;;;;;;;;;5048976;28;20209;-64
2022/04/20 14:51:24;;;;;;;1.10;1.10;;;;;;;;;;5046777;28;20175;-65
2022/04/20 14:53:50;;;;;;;1.33;1.27;;;;;;;;;;5046016;28;20187;-63
2022/04/20 14:56:17;;;;;;;0.90;0.90;;;;;;;;;;5053939;28;20183;-63
2022/04/20 14:58:48;;;;;;;1.10;1.10;;;;;;;;;;5055107;28;20237;-64
2022/04/20 15:01:14;;;;;;;1.30;1.20;;;;;;;;;;5056181;28;20163;-64
2022/04/20 15:03:40;;;;;;;1.37;1.27;;;;;;;;;;5056230;28;20179;-66
2022/04/20 15:06:08;;;;;;;1.60;1.50;;;;;;;;;;5056042;28;20262;-64
2022/04/20 15:08:34;;;;;;;1.50;1.40;;;;;;;;;;5053622;28;20191;-64
2022/04/20 15:11:00;;;;;;;1.13;1.03;;;;;;;;;;5045768;28;20233;-64
2022/04/20 15:13:26;;;;;;;1.23;1.17;;;;;;;;;;5045198;28;20183;-63
2022/04/20 15:15:52;;;;;;;1.07;1.07;;;;;;;;;;5050917;28;20183;-64
2022/04/20 15:18:18;;;;;;;1.20;1.10;;;;;;;;;;5052099;28;20218;-65
2022/04/20 15:20:44;;;;;;;1.47;1.37;;;;;;;;;;5051392;28;20186;-64
2022/04/20 15:23:10;;;;;;;0.90;0.90;;;;;;;;;;5050981;28;20180;-64
2022/04/20 15:25:36;;;;;;;1.40;1.30;;;;;;;;;;5050031;28;20190;-64
2022/04/20 15:28:02;;;;;;;1.10;1.10;;;;;;;;;;5047116;28;20199;-64
2022/04/20 15:30:34;;;;;;;1.20;1.20;;;;;;;;;;5044098;28;20187;-64
2022/04/20 15:33:00;;;;;;;1.10;1.00;;;;;;;;;;5042015;28;20202;-63
2022/04/20 15:35:26;;;;;;;0.80;0.80;;;;;;;;;;5040362;28;20187;-63